sensor_id;sensor_type;location;lat;lon;timestamp;P1;durP1;ratioP1;P2;durP2;ratioP2
51020;SDS011;38907;45.562;8.856;2024-03-29T00:01:41;11.23;;;10.18;;
51020;SDS011;38907;45.562;8.856;2024-03-29T00:06:42;11.30;;;10.20;;
51020;SDS011;38907;45.562;8.856;2024-03-29T00:11:43;9.95;;;8.93;;
51020;SDS011;38907;45.562;8.856;2024-03-29T00:16:45;11.70;;;9.65;;
51020;SDS011;38907;45.562;8.856;2024-03-29T00:21:46;12.00;;;9.73;;
51020;SDS011;38907;45.562;8.856;2024-03-29T00:26:47;10.35;;;9.32;;
51020;SDS011;38907;45.562;8.856;2024-03-29T00:31:49;9.85;;;8.65;;
51020;SDS011;38907;45.562;8.856;2024-03-29T00:41:50;10.93;;;9.83;;
51020;SDS011;38907;45.562;8.856;2024-03-29T00:46:53;9.30;;;8.40;;
51020;SDS011;38907;45.562;8.856;2024-03-29T00:51:53;8.75;;;7.85;;
51020;SDS011;38907;45.562;8.856;2024-03-29T00:56:54;9.68;;;8.77;;
51020;SDS011;38907;45.562;8.856;2024-03-29T01:01:57;9.05;;;8.15;;
51020;SDS011;38907;45.562;8.856;2024-03-29T01:06:58;9.75;;;8.77;;
51020;SDS011;38907;45.562;8.856;2024-03-29T01:11:59;9.38;;;8.48;;
51020;SDS011;38907;45.562;8.856;2024-03-29T01:17:01;9.20;;;8.30;;
51020;SDS011;38907;45.562;8.856;2024-03-29T01:22:02;10.67;;;8.77;;
51020;SDS011;38907;45.562;8.856;2024-03-29T01:27:04;9.95;;;8.88;;
51020;SDS011;38907;45.562;8.856;2024-03-29T01:32:07;9.63;;;8.73;;
51020;SDS011;38907;45.562;8.856;2024-03-29T01:37:08;9.73;;;8.38;;
51020;SDS011;38907;45.562;8.856;2024-03-29T01:42:09;9.65;;;8.10;;
51020;SDS011;38907;45.562;8.856;2024-03-29T01:47:11;11.73;;;8.85;;
51020;SDS011;38907;45.562;8.856;2024-03-29T01:52:13;9.68;;;8.73;;
51020;SDS011;38907;45.562;8.856;2024-03-29T01:57:17;10.88;;;8.95;;
51020;SDS011;38907;45.562;8.856;2024-03-29T02:02:20;10.40;;;9.23;;
51020;SDS011;38907;45.562;8.856;2024-03-29T02:07:23;9.45;;;8.52;;
51020;SDS011;38907;45.562;8.856;2024-03-29T02:12:25;10.07;;;8.80;;
51020;SDS011;38907;45.562;8.856;2024-03-29T02:17:29;9.50;;;8.60;;
51020;SDS011;38907;45.562;8.856;2024-03-29T02:22:30;8.60;;;7.80;;
51020;SDS011;38907;45.562;8.856;2024-03-29T02:27:36;8.52;;;7.72;;
51020;SDS011;38907;45.562;8.856;2024-03-29T02:32:38;8.68;;;7.63;;
51020;SDS011;38907;45.562;8.856;2024-03-29T02:37:40;9.85;;;8.85;;
51020;SDS011;38907;45.562;8.856;2024-03-29T02:42:43;9.40;;;7.78;;
51020;SDS011;38907;45.562;8.856;2024-03-29T02:47:45;8.00;;;7.25;;
51020;SDS011;38907;45.562;8.856;2024-03-29T02:52:47;8.70;;;7.82;;
51020;SDS011;38907;45.562;8.856;2024-03-29T02:57:50;8.88;;;7.78;;
51020;SDS011;38907;45.562;8.856;2024-03-29T03:02:52;7.95;;;7.15;;
51020;SDS011;38907;45.562;8.856;2024-03-29T03:07:54;9.35;;;7.63;;
51020;SDS011;38907;45.562;8.856;2024-03-29T03:13:14;8.38;;;6.93;;
51020;SDS011;38907;45.562;8.856;2024-03-29T03:18:16;8.80;;;7.97;;
51020;SDS011;38907;45.562;8.856;2024-03-29T03:23:18;8.77;;;7.00;;
51020;SDS011;38907;45.562;8.856;2024-03-29T03:28:21;8.68;;;7.40;;
51020;SDS011;38907;45.562;8.856;2024-03-29T03:33:23;7.28;;;6.53;;
51020;SDS011;38907;45.562;8.856;2024-03-29T03:38:25;7.18;;;6.45;;
51020;SDS011;38907;45.562;8.856;2024-03-29T03:43:28;5.18;;;4.68;;
51020;SDS011;38907;45.562;8.856;2024-03-29T03:48:30;5.10;;;4.60;;
51020;SDS011;38907;45.562;8.856;2024-03-29T03:53:32;5.18;;;4.70;;
51020;SDS011;38907;45.562;8.856;2024-03-29T03:58:35;5.13;;;4.57;;
51020;SDS011;38907;45.562;8.856;2024-03-29T04:03:37;4.78;;;4.35;;
51020;SDS011;38907;45.562;8.856;2024-03-29T04:08:39;5.18;;;4.55;;
51020;SDS011;38907;45.562;8.856;2024-03-29T04:13:44;4.80;;;4.40;;
51020;SDS011;38907;45.562;8.856;2024-03-29T04:18:46;5.32;;;4.82;;
51020;SDS011;38907;45.562;8.856;2024-03-29T04:23:48;5.10;;;4.60;;
51020;SDS011;38907;45.562;8.856;2024-03-29T04:28:51;6.93;;;4.60;;
51020;SDS011;38907;45.562;8.856;2024-03-29T04:33:54;5.95;;;5.35;;
51020;SDS011;38907;45.562;8.856;2024-03-29T04:38:56;6.85;;;5.60;;
51020;SDS011;38907;45.562;8.856;2024-03-29T04:43:59;6.55;;;5.05;;
51020;SDS011;38907;45.562;8.856;2024-03-29T04:49:01;5.53;;;5.03;;
51020;SDS011;38907;45.562;8.856;2024-03-29T04:54:03;5.93;;;4.57;;
51020;SDS011;38907;45.562;8.856;2024-03-29T04:59:06;5.53;;;4.60;;
51020;SDS011;38907;45.562;8.856;2024-03-29T05:04:10;5.60;;;5.10;;
51020;SDS011;38907;45.562;8.856;2024-03-29T05:09:13;5.57;;;4.57;;
51020;SDS011;38907;45.562;8.856;2024-03-29T05:14:16;5.68;;;5.18;;
51020;SDS011;38907;45.562;8.856;2024-03-29T05:19:19;5.30;;;4.70;;
51020;SDS011;38907;45.562;8.856;2024-03-29T05:24:21;6.03;;;5.07;;
51020;SDS011;38907;45.562;8.856;2024-03-29T05:29:24;5.82;;;5.20;;
51020;SDS011;38907;45.562;8.856;2024-03-29T05:34:26;6.97;;;6.28;;
51020;SDS011;38907;45.562;8.856;2024-03-29T05:39:28;8.18;;;5.80;;
51020;SDS011;38907;45.562;8.856;2024-03-29T05:44:31;7.07;;;5.95;;
51020;SDS011;38907;45.562;8.856;2024-03-29T05:49:33;6.80;;;5.70;;
51020;SDS011;38907;45.562;8.856;2024-03-29T05:54:35;8.93;;;5.10;;
51020;SDS011;38907;45.562;8.856;2024-03-29T05:59:38;7.38;;;5.55;;
51020;SDS011;38907;45.562;8.856;2024-03-29T06:04:40;7.90;;;6.43;;
51020;SDS011;38907;45.562;8.856;2024-03-29T06:09:42;9.00;;;7.13;;
51020;SDS011;38907;45.562;8.856;2024-03-29T06:14:45;8.35;;;7.03;;
51020;SDS011;38907;45.562;8.856;2024-03-29T06:20:05;7.63;;;6.80;;
51020;SDS011;38907;45.562;8.856;2024-03-29T06:25:08;9.98;;;7.38;;
51020;SDS011;38907;45.562;8.856;2024-03-29T06:30:12;10.75;;;7.40;;
51020;SDS011;38907;45.562;8.856;2024-03-29T06:35:14;9.27;;;7.45;;
51020;SDS011;38907;45.562;8.856;2024-03-29T06:40:16;10.88;;;9.77;;
51020;SDS011;38907;45.562;8.856;2024-03-29T06:45:19;9.93;;;8.50;;
51020;SDS011;38907;45.562;8.856;2024-03-29T06:50:21;9.32;;;8.00;;
51020;SDS011;38907;45.562;8.856;2024-03-29T06:55:23;9.02;;;7.57;;
51020;SDS011;38907;45.562;8.856;2024-03-29T07:00:26;10.45;;;7.72;;
51020;SDS011;38907;45.562;8.856;2024-03-29T07:05:28;8.48;;;7.57;;
51020;SDS011;38907;45.562;8.856;2024-03-29T07:10:29;8.85;;;7.68;;
51020;SDS011;38907;45.562;8.856;2024-03-29T07:15:33;8.82;;;7.22;;
51020;SDS011;38907;45.562;8.856;2024-03-29T07:20:35;9.43;;;7.63;;
51020;SDS011;38907;45.562;8.856;2024-03-29T07:25:36;8.77;;;7.88;;
51020;SDS011;38907;45.562;8.856;2024-03-29T07:30:40;10.68;;;8.93;;
51020;SDS011;38907;45.562;8.856;2024-03-29T07:35:42;13.45;;;10.27;;
51020;SDS011;38907;45.562;8.856;2024-03-29T07:40:43;14.30;;;10.65;;
51020;SDS011;38907;45.562;8.856;2024-03-29T07:45:46;15.00;;;10.98;;
51020;SDS011;38907;45.562;8.856;2024-03-29T07:50:49;14.55;;;10.75;;
51020;SDS011;38907;45.562;8.856;2024-03-29T07:55:50;14.98;;;11.50;;
51020;SDS011;38907;45.562;8.856;2024-03-29T08:00:53;12.52;;;11.18;;
51020;SDS011;38907;45.562;8.856;2024-03-29T08:05:56;15.82;;;11.40;;
51020;SDS011;38907;45.562;8.856;2024-03-29T08:10:58;14.20;;;12.70;;
51020;SDS011;38907;45.562;8.856;2024-03-29T08:16:02;16.08;;;12.32;;
51020;SDS011;38907;45.562;8.856;2024-03-29T08:21:04;15.32;;;13.25;;
51020;SDS011;38907;45.562;8.856;2024-03-29T08:26:11;16.08;;;14.38;;
51020;SDS011;38907;45.562;8.856;2024-03-29T08:31:15;18.10;;;16.05;;
51020;SDS011;38907;45.562;8.856;2024-03-29T08:36:17;18.90;;;16.90;;
51020;SDS011;38907;45.562;8.856;2024-03-29T08:41:18;20.65;;;18.48;;
51020;SDS011;38907;45.562;8.856;2024-03-29T08:46:22;28.30;;;24.08;;
51020;SDS011;38907;45.562;8.856;2024-03-29T08:51:23;32.95;;;28.10;;
51020;SDS011;38907;45.562;8.856;2024-03-29T08:56:25;39.10;;;34.90;;
51020;SDS011;38907;45.562;8.856;2024-03-29T09:01:28;44.35;;;38.03;;
51020;SDS011;38907;45.562;8.856;2024-03-29T09:06:30;43.13;;;37.35;;
51020;SDS011;38907;45.562;8.856;2024-03-29T09:11:32;52.17;;;43.38;;
51020;SDS011;38907;45.562;8.856;2024-03-29T09:16:35;53.47;;;45.75;;
51020;SDS011;38907;45.562;8.856;2024-03-29T09:21:37;53.17;;;46.22;;
51020;SDS011;38907;45.562;8.856;2024-03-29T09:26:39;54.97;;;44.15;;
51020;SDS011;38907;45.562;8.856;2024-03-29T09:31:42;47.85;;;41.00;;
51020;SDS011;38907;45.562;8.856;2024-03-29T09:36:44;43.47;;;38.72;;
51020;SDS011;38907;45.562;8.856;2024-03-29T09:41:46;45.25;;;39.85;;
51020;SDS011;38907;45.562;8.856;2024-03-29T09:46:49;43.63;;;37.97;;
51020;SDS011;38907;45.562;8.856;2024-03-29T09:51:53;41.95;;;37.28;;
51020;SDS011;38907;45.562;8.856;2024-03-29T09:56:56;37.10;;;33.13;;
51020;SDS011;38907;45.562;8.856;2024-03-29T10:02:00;34.87;;;31.00;;
51020;SDS011;38907;45.562;8.856;2024-03-29T10:07:04;37.60;;;33.58;;
51020;SDS011;38907;45.562;8.856;2024-03-29T10:12:06;35.03;;;31.27;;
51020;SDS011;38907;45.562;8.856;2024-03-29T10:17:09;34.47;;;30.88;;
51020;SDS011;38907;45.562;8.856;2024-03-29T10:22:11;32.03;;;28.63;;
51020;SDS011;38907;45.562;8.856;2024-03-29T10:27:14;27.52;;;24.67;;
51020;SDS011;38907;45.562;8.856;2024-03-29T10:32:17;32.05;;;28.70;;
51020;SDS011;38907;45.562;8.856;2024-03-29T10:37:19;34.13;;;30.60;;
51020;SDS011;38907;45.562;8.856;2024-03-29T10:42:26;29.67;;;26.52;;
51020;SDS011;38907;45.562;8.856;2024-03-29T10:47:30;29.77;;;26.67;;
51020;SDS011;38907;45.562;8.856;2024-03-29T10:52:34;30.83;;;23.20;;
51020;SDS011;38907;45.562;8.856;2024-03-29T10:57:39;23.23;;;20.80;;
51020;SDS011;38907;45.562;8.856;2024-03-29T11:02:46;26.77;;;23.02;;
51020;SDS011;38907;45.562;8.856;2024-03-29T11:07:50;26.60;;;23.52;;
51020;SDS011;38907;45.562;8.856;2024-03-29T11:12:58;27.92;;;24.13;;
51020;SDS011;38907;45.562;8.856;2024-03-29T11:18:05;26.67;;;23.98;;
51020;SDS011;38907;45.562;8.856;2024-03-29T11:23:09;24.20;;;21.65;;
51020;SDS011;38907;45.562;8.856;2024-03-29T11:28:14;26.10;;;23.38;;
51020;SDS011;38907;45.562;8.856;2024-03-29T11:33:26;23.20;;;20.70;;
51020;SDS011;38907;45.562;8.856;2024-03-29T11:38:33;21.20;;;18.98;;
51020;SDS011;38907;45.562;8.856;2024-03-29T11:43:35;17.23;;;15.43;;
51020;SDS011;38907;45.562;8.856;2024-03-29T11:48:39;14.03;;;12.50;;
51020;SDS011;38907;45.562;8.856;2024-03-29T11:53:41;13.13;;;11.75;;
51020;SDS011;38907;45.562;8.856;2024-03-29T11:58:44;11.20;;;10.10;;
51020;SDS011;38907;45.562;8.856;2024-03-29T12:03:48;9.60;;;8.70;;
51020;SDS011;38907;45.562;8.856;2024-03-29T12:13:53;9.68;;;7.85;;
51020;SDS011;38907;45.562;8.856;2024-03-29T12:18:56;7.82;;;6.90;;
51020;SDS011;38907;45.562;8.856;2024-03-29T12:23:58;7.10;;;6.38;;
51020;SDS011;38907;45.562;8.856;2024-03-29T12:29:01;6.85;;;6.18;;
51020;SDS011;38907;45.562;8.856;2024-03-29T12:34:04;7.32;;;6.10;;
51020;SDS011;38907;45.562;8.856;2024-03-29T12:39:07;7.05;;;6.35;;
51020;SDS011;38907;45.562;8.856;2024-03-29T12:44:09;9.68;;;7.30;;
51020;SDS011;38907;45.562;8.856;2024-03-29T12:49:13;7.30;;;6.53;;
51020;SDS011;38907;45.562;8.856;2024-03-29T12:59:18;8.70;;;7.82;;
51020;SDS011;38907;45.562;8.856;2024-03-29T13:04:22;7.68;;;6.97;;
51020;SDS011;38907;45.562;8.856;2024-03-29T13:09:24;7.25;;;6.63;;
51020;SDS011;38907;45.562;8.856;2024-03-29T13:14:26;6.00;;;5.50;;
51020;SDS011;38907;45.562;8.856;2024-03-29T13:19:29;8.07;;;6.53;;
51020;SDS011;38907;45.562;8.856;2024-03-29T13:24:31;6.45;;;5.82;;
51020;SDS011;38907;45.562;8.856;2024-03-29T13:29:33;6.28;;;5.68;;
51020;SDS011;38907;45.562;8.856;2024-03-29T13:34:36;7.32;;;5.70;;
51020;SDS011;38907;45.562;8.856;2024-03-29T13:39:38;7.22;;;6.40;;
51020;SDS011;38907;45.562;8.856;2024-03-29T13:44:40;10.13;;;9.10;;
51020;SDS011;38907;45.562;8.856;2024-03-29T13:49:43;12.75;;;10.55;;
51020;SDS011;38907;45.562;8.856;2024-03-29T13:54:45;7.80;;;6.85;;
51020;SDS011;38907;45.562;8.856;2024-03-29T13:59:47;8.85;;;6.72;;
51020;SDS011;38907;45.562;8.856;2024-03-29T14:04:51;8.10;;;7.40;;
51020;SDS011;38907;45.562;8.856;2024-03-29T14:09:52;8.68;;;7.53;;
51020;SDS011;38907;45.562;8.856;2024-03-29T14:14:54;8.98;;;6.43;;
51020;SDS011;38907;45.562;8.856;2024-03-29T14:19:58;6.88;;;5.88;;
51020;SDS011;38907;45.562;8.856;2024-03-29T14:25:01;6.50;;;5.90;;
51020;SDS011;38907;45.562;8.856;2024-03-29T14:30:05;6.18;;;5.47;;
51020;SDS011;38907;45.562;8.856;2024-03-29T14:35:09;6.37;;;5.30;;
51020;SDS011;38907;45.562;8.856;2024-03-29T14:40:12;7.13;;;5.32;;
51020;SDS011;38907;45.562;8.856;2024-03-29T14:45:15;5.70;;;5.15;;
51020;SDS011;38907;45.562;8.856;2024-03-29T14:50:21;6.03;;;4.72;;
51020;SDS011;38907;45.562;8.856;2024-03-29T14:55:27;8.07;;;5.03;;
51020;SDS011;38907;45.562;8.856;2024-03-29T15:00:31;5.35;;;4.93;;
51020;SDS011;38907;45.562;8.856;2024-03-29T15:05:34;5.47;;;4.82;;
51020;SDS011;38907;45.562;8.856;2024-03-29T15:10:36;6.63;;;4.63;;
51020;SDS011;38907;45.562;8.856;2024-03-29T15:15:38;7.35;;;5.28;;
51020;SDS011;38907;45.562;8.856;2024-03-29T15:20:41;5.30;;;4.80;;
51020;SDS011;38907;45.562;8.856;2024-03-29T15:25:43;7.18;;;6.47;;
51020;SDS011;38907;45.562;8.856;2024-03-29T15:30:45;5.87;;;4.33;;
51020;SDS011;38907;45.562;8.856;2024-03-29T15:35:54;5.68;;;5.18;;
51020;SDS011;38907;45.562;8.856;2024-03-29T15:40:56;6.72;;;5.55;;
51020;SDS011;38907;45.562;8.856;2024-03-29T15:45:58;8.90;;;7.15;;
51020;SDS011;38907;45.562;8.856;2024-03-29T15:51:02;6.80;;;6.10;;
51020;SDS011;38907;45.562;8.856;2024-03-29T15:56:04;6.47;;;5.85;;
51020;SDS011;38907;45.562;8.856;2024-03-29T16:06:10;6.75;;;6.03;;
51020;SDS011;38907;45.562;8.856;2024-03-29T16:11:12;22.00;;;13.85;;
51020;SDS011;38907;45.562;8.856;2024-03-29T16:16:14;10.73;;;9.52;;
51020;SDS011;38907;45.562;8.856;2024-03-29T16:21:17;7.03;;;6.32;;
51020;SDS011;38907;45.562;8.856;2024-03-29T16:26:19;6.97;;;6.30;;
51020;SDS011;38907;45.562;8.856;2024-03-29T16:31:21;6.10;;;5.60;;
51020;SDS011;38907;45.562;8.856;2024-03-29T16:36:24;7.15;;;6.57;;
51020;SDS011;38907;45.562;8.856;2024-03-29T16:41:27;7.03;;;5.60;;
51020;SDS011;38907;45.562;8.856;2024-03-29T16:46:28;7.00;;;6.30;;
51020;SDS011;38907;45.562;8.856;2024-03-29T16:51:32;7.22;;;6.10;;
51020;SDS011;38907;45.562;8.856;2024-03-29T16:56:34;11.65;;;6.85;;
51020;SDS011;38907;45.562;8.856;2024-03-29T17:01:35;8.43;;;7.63;;
51020;SDS011;38907;45.562;8.856;2024-03-29T17:06:40;9.13;;;8.25;;
51020;SDS011;38907;45.562;8.856;2024-03-29T17:11:41;8.35;;;7.55;;
51020;SDS011;38907;45.562;8.856;2024-03-29T17:16:44;9.18;;;7.68;;
51020;SDS011;38907;45.562;8.856;2024-03-29T17:21:49;6.88;;;5.80;;
51020;SDS011;38907;45.562;8.856;2024-03-29T17:26:51;7.40;;;6.22;;
51020;SDS011;38907;45.562;8.856;2024-03-29T17:31:53;7.97;;;6.63;;
51020;SDS011;38907;45.562;8.856;2024-03-29T17:41:57;14.43;;;13.03;;
51020;SDS011;38907;45.562;8.856;2024-03-29T17:46:59;10.57;;;9.55;;
51020;SDS011;38907;45.562;8.856;2024-03-29T17:52:01;11.30;;;10.15;;
51020;SDS011;38907;45.562;8.856;2024-03-29T17:57:04;13.57;;;9.95;;
51020;SDS011;38907;45.562;8.856;2024-03-29T18:02:06;12.93;;;9.85;;
51020;SDS011;38907;45.562;8.856;2024-03-29T18:07:08;12.35;;;11.15;;
51020;SDS011;38907;45.562;8.856;2024-03-29T18:12:11;10.52;;;9.52;;
51020;SDS011;38907;45.562;8.856;2024-03-29T18:17:13;8.27;;;7.47;;
51020;SDS011;38907;45.562;8.856;2024-03-29T18:22:15;9.18;;;7.88;;
51020;SDS011;38907;45.562;8.856;2024-03-29T18:27:18;13.07;;;9.75;;
51020;SDS011;38907;45.562;8.856;2024-03-29T18:32:20;12.10;;;10.80;;
51020;SDS011;38907;45.562;8.856;2024-03-29T18:37:22;13.88;;;10.63;;
51020;SDS011;38907;45.562;8.856;2024-03-29T18:42:25;11.18;;;10.02;;
51020;SDS011;38907;45.562;8.856;2024-03-29T18:47:27;9.95;;;8.98;;
51020;SDS011;38907;45.562;8.856;2024-03-29T18:52:29;10.60;;;9.60;;
51020;SDS011;38907;45.562;8.856;2024-03-29T18:57:32;10.73;;;9.13;;
51020;SDS011;38907;45.562;8.856;2024-03-29T19:02:35;12.55;;;10.60;;
51020;SDS011;38907;45.562;8.856;2024-03-29T19:07:37;11.98;;;9.70;;
51020;SDS011;38907;45.562;8.856;2024-03-29T19:12:40;11.02;;;9.93;;
51020;SDS011;38907;45.562;8.856;2024-03-29T19:17:42;12.25;;;10.55;;
51020;SDS011;38907;45.562;8.856;2024-03-29T19:22:44;14.30;;;10.90;;
51020;SDS011;38907;45.562;8.856;2024-03-29T19:32:56;59.85;;;36.13;;
51020;SDS011;38907;45.562;8.856;2024-03-29T19:37:58;14.55;;;10.45;;
51020;SDS011;38907;45.562;8.856;2024-03-29T19:43:02;15.10;;;12.43;;
51020;SDS011;38907;45.562;8.856;2024-03-29T19:48:04;13.43;;;11.70;;
51020;SDS011;38907;45.562;8.856;2024-03-29T19:53:07;12.73;;;11.45;;
51020;SDS011;38907;45.562;8.856;2024-03-29T19:58:10;13.27;;;11.75;;
51020;SDS011;38907;45.562;8.856;2024-03-29T20:03:13;17.23;;;13.50;;
51020;SDS011;38907;45.562;8.856;2024-03-29T20:08:15;13.88;;;12.48;;
51020;SDS011;38907;45.562;8.856;2024-03-29T20:13:18;16.35;;;14.65;;
51020;SDS011;38907;45.562;8.856;2024-03-29T20:18:20;15.68;;;14.07;;
51020;SDS011;38907;45.562;8.856;2024-03-29T20:23:22;15.55;;;13.65;;
51020;SDS011;38907;45.562;8.856;2024-03-29T20:28:25;19.13;;;15.25;;
51020;SDS011;38907;45.562;8.856;2024-03-29T20:33:29;18.60;;;15.05;;
51020;SDS011;38907;45.562;8.856;2024-03-29T20:38:31;16.35;;;13.30;;
51020;SDS011;38907;45.562;8.856;2024-03-29T20:43:34;15.82;;;12.70;;
51020;SDS011;38907;45.562;8.856;2024-03-29T20:48:36;18.83;;;13.52;;
51020;SDS011;38907;45.562;8.856;2024-03-29T20:53:38;20.88;;;14.73;;
51020;SDS011;38907;45.562;8.856;2024-03-29T20:58:41;18.17;;;15.75;;
51020;SDS011;38907;45.562;8.856;2024-03-29T21:03:43;21.25;;;18.15;;
51020;SDS011;38907;45.562;8.856;2024-03-29T21:09:02;18.60;;;16.70;;
51020;SDS011;38907;45.562;8.856;2024-03-29T21:14:06;19.30;;;17.30;;
51020;SDS011;38907;45.562;8.856;2024-03-29T21:19:08;17.80;;;15.65;;
51020;SDS011;38907;45.562;8.856;2024-03-29T21:24:10;19.58;;;17.42;;
51020;SDS011;38907;45.562;8.856;2024-03-29T21:29:13;20.00;;;17.15;;
51020;SDS011;38907;45.562;8.856;2024-03-29T21:34:15;26.27;;;22.73;;
51020;SDS011;38907;45.562;8.856;2024-03-29T21:39:17;29.35;;;22.20;;
51020;SDS011;38907;45.562;8.856;2024-03-29T21:44:20;20.98;;;18.25;;
51020;SDS011;38907;45.562;8.856;2024-03-29T21:49:23;18.67;;;16.77;;
51020;SDS011;38907;45.562;8.856;2024-03-29T21:54:25;23.88;;;19.55;;
51020;SDS011;38907;45.562;8.856;2024-03-29T21:59:28;22.85;;;20.45;;
51020;SDS011;38907;45.562;8.856;2024-03-29T22:04:30;24.15;;;21.45;;
51020;SDS011;38907;45.562;8.856;2024-03-29T22:09:33;23.50;;;21.00;;
51020;SDS011;38907;45.562;8.856;2024-03-29T22:14:37;24.13;;;21.10;;
51020;SDS011;38907;45.562;8.856;2024-03-29T22:19:39;24.38;;;22.15;;
51020;SDS011;38907;45.562;8.856;2024-03-29T22:24:41;23.02;;;20.83;;
51020;SDS011;38907;45.562;8.856;2024-03-29T22:29:46;22.15;;;19.90;;
51020;SDS011;38907;45.562;8.856;2024-03-29T22:34:48;22.08;;;19.10;;
51020;SDS011;38907;45.562;8.856;2024-03-29T22:39:49;20.95;;;18.83;;
51020;SDS011;38907;45.562;8.856;2024-03-29T22:44:53;21.25;;;19.15;;
51020;SDS011;38907;45.562;8.856;2024-03-29T22:49:55;23.33;;;20.42;;
51020;SDS011;38907;45.562;8.856;2024-03-29T22:54:57;21.67;;;19.50;;
51020;SDS011;38907;45.562;8.856;2024-03-29T23:00:00;20.33;;;17.48;;
51020;SDS011;38907;45.562;8.856;2024-03-29T23:05:03;21.10;;;17.23;;
51020;SDS011;38907;45.562;8.856;2024-03-29T23:10:05;22.30;;;17.95;;
51020;SDS011;38907;45.562;8.856;2024-03-29T23:15:08;18.92;;;16.50;;
51020;SDS011;38907;45.562;8.856;2024-03-29T23:25:12;19.95;;;17.75;;
51020;SDS011;38907;45.562;8.856;2024-03-29T23:30:16;19.33;;;15.93;;
51020;SDS011;38907;45.562;8.856;2024-03-29T23:35:18;18.10;;;16.27;;
51020;SDS011;38907;45.562;8.856;2024-03-29T23:40:20;19.48;;;17.42;;
51020;SDS011;38907;45.562;8.856;2024-03-29T23:45:23;19.27;;;17.38;;
51020;SDS011;38907;45.562;8.856;2024-03-29T23:50:25;19.27;;;17.23;;
51020;SDS011;38907;45.562;8.856;2024-03-29T23:55:29;18.27;;;16.30;;
